Time,TemperatureF,DewpointF,PressureIn,WindDirection,WindDirectionDegrees,WindSpeedMPH,WindSpeedGustMPH,Humidity,HourlyPrecipIn,Conditions,Clouds,dailyrainin,SoftwareType,DateUTC
2013-07-04 00:04:00,-999.0,-99.9,26.63,North,-999,-999.0,-999.0,-999,0.00,,,0.85,weatherlink.com 1.10,2013-07-04 04:04:00,
2013-07-04 00:19:00,-999.0,-99.9,26.63,North,-999,-999.0,-999.0,-999,0.00,,,0.85,weatherlink.com 1.10,2013-07-04 04:19:00,
2013-07-04 00:34:00,-999.0,-99.9,26.63,North,-999,-999.0,-999.0,-999,0.00,,,0.85,weatherlink.com 1.10,2013-07-04 04:34:00,
2013-07-04 00:49:00,-999.0,-99.9,26.63,North,-999,-999.0,-999.0,-999,0.00,,,0.85,weatherlink.com 1.10,2013-07-04 04:49:00,
2013-07-04 01:04:00,-999.0,-99.9,26.64,North,-999,-999.0,-999.0,-999,0.00,,,0.85,weatherlink.com 1.10,2013-07-04 05:04:00,
2013-07-04 01:19:00,-999.0,-99.9,26.63,North,-999,-999.0,-999.0,-999,0.00,,,0.85,weatherlink.com 1.10,2013-07-04 05:19:00,
2013-07-04 01:34:00,-999.0,-99.9,26.63,North,-999,-999.0,-999.0,-999,0.00,,,0.85,weatherlink.com 1.10,2013-07-04 05:34:00,
2013-07-04 01:49:00,-999.0,-99.9,26.63,North,-999,-999.0,-999.0,-999,0.00,,,0.00,weatherlink.com 1.10,2013-07-04 05:49:00,
2013-07-04 02:05:00,-999.0,-99.9,26.61,North,-999,-999.0,-999.0,-999,0.00,,,0.00,weatherlink.com 1.10,2013-07-04 06:05:00,
2013-07-04 02:20:00,-999.0,-99.9,26.61,North,-999,-999.0,-999.0,-999,0.00,,,0.00,weatherlink.com 1.10,2013-07-04 06:20:00,
2013-07-04 02:35:00,-999.0,-99.9,26.61,North,-999,-999.0,-999.0,-999,0.00,,,0.00,weatherlink.com 1.10,2013-07-04 06:35:00,
2013-07-04 02:50:00,-999.0,-99.9,26.61,North,-999,-999.0,-999.0,-999,0.00,,,0.00,weatherlink.com 1.10,2013-07-04 06:50:00,
2013-07-04 03:05:00,-999.0,-99.9,26.61,North,-999,-999.0,-999.0,-999,0.00,,,0.00,weatherlink.com 1.10,2013-07-04 07:05:00,
2013-07-04 03:20:00,-999.0,-99.9,26.61,North,-999,-999.0,-999.0,-999,0.00,,,0.00,weatherlink.com 1.10,2013-07-04 07:20:00,
2013-07-04 03:35:00,-999.0,-99.9,26.61,North,-999,-999.0,-999.0,-999,0.00,,,0.00,weatherlink.com 1.10,2013-07-04 07:35:00,
2013-07-04 03:50:00,-999.0,-99.9,26.61,North,-999,-999.0,-999.0,-999,0.00,,,0.00,weatherlink.com 1.10,2013-07-04 07:50:00,
2013-07-04 04:05:00,-999.0,-99.9,26.61,North,-999,-999.0,-999.0,-999,0.00,,,0.00,weatherlink.com 1.10,2013-07-04 08:05:00,
2013-07-04 04:20:00,-999.0,-99.9,26.61,North,-999,-999.0,-999.0,-999,0.00,,,0.00,weatherlink.com 1.10,2013-07-04 08:20:00,
2013-07-04 04:35:00,-999.0,-99.9,26.61,North,-999,-999.0,-999.0,-999,0.00,,,0.00,weatherlink.com 1.10,2013-07-04 08:35:00,
2013-07-04 04:50:00,-999.0,-99.9,26.60,North,-999,-999.0,-999.0,-999,0.00,,,0.00,weatherlink.com 1.10,2013-07-04 08:50:00,
2013-07-04 05:05:00,-999.0,-99.9,26.61,North,-999,-999.0,-999.0,-999,0.00,,,0.00,weatherlink.com 1.10,2013-07-04 09:05:00,
2013-07-04 05:20:00,-999.0,-99.9,26.61,North,-999,-999.0,-999.0,-999,0.00,,,0.00,weatherlink.com 1.10,2013-07-04 09:20:00,
2013-07-04 05:36:00,-999.0,-99.9,26.61,North,-999,-999.0,-999.0,-999,0.00,,,0.00,weatherlink.com 1.10,2013-07-04 09:36:00,
2013-07-04 05:51:00,-999.0,-99.9,26.61,North,-999,-999.0,-999.0,-999,0.00,,,0.00,weatherlink.com 1.10,2013-07-04 09:51:00,
2013-07-04 06:06:00,-999.0,-99.9,26.61,North,-999,-999.0,-999.0,-999,0.00,,,0.00,weatherlink.com 1.10,2013-07-04 10:06:00,
2013-07-04 06:21:00,-999.0,-99.9,26.61,North,-999,-999.0,-999.0,-999,0.00,,,0.00,weatherlink.com 1.10,2013-07-04 10:21:00,
2013-07-04 06:36:00,-999.0,-99.9,26.62,North,-999,-999.0,-999.0,-999,0.00,,,0.00,weatherlink.com 1.10,2013-07-04 10:36:00,
2013-07-04 06:51:00,-999.0,-99.9,26.63,North,-999,-999.0,-999.0,-999,0.00,,,0.00,weatherlink.com 1.10,2013-07-04 10:51:00,
2013-07-04 07:06:00,-999.0,-99.9,26.63,North,-999,-999.0,-999.0,-999,0.00,,,0.00,weatherlink.com 1.10,2013-07-04 11:06:00,
2013-07-04 07:21:00,-999.0,-99.9,26.63,North,-999,-999.0,-999.0,-999,0.00,,,0.00,weatherlink.com 1.10,2013-07-04 11:21:00,
2013-07-04 07:36:00,62.1,62.0,26.63,North,355,0.0,0.0,98,0.00,,,0.00,weatherlink.com 1.10,2013-07-04 11:36:00,
2013-07-04 07:51:00,62.4,62.0,26.63,North,355,0.0,3.0,98,0.00,,,0.00,weatherlink.com 1.10,2013-07-04 11:51:00,
2013-07-04 08:06:00,63.2,63.0,26.64,North,355,0.0,2.0,98,0.00,,,0.00,weatherlink.com 1.10,2013-07-04 12:06:00,
2013-07-04 08:21:00,63.2,63.0,26.64,NE,46,0.0,4.0,98,0.00,,,0.00,weatherlink.com 1.10,2013-07-04 12:21:00,
2013-07-04 08:36:00,63.5,63.0,26.64,East,84,2.0,6.0,98,0.01,,,0.01,weatherlink.com 1.10,2013-07-04 12:36:00,
2013-07-04 08:51:00,63.4,63.0,26.65,East,87,1.0,7.0,98,0.04,,,0.04,weatherlink.com 1.10,2013-07-04 12:51:00,
2013-07-04 09:06:00,63.2,62.0,26.65,SSE,163,3.0,11.0,97,0.05,,,0.05,weatherlink.com 1.10,2013-07-04 13:06:00,
2013-07-04 09:21:00,63.2,62.0,26.65,South,181,0.0,9.0,97,0.11,,,0.11,weatherlink.com 1.10,2013-07-04 13:21:00,
2013-07-04 09:36:00,63.4,63.0,26.64,SE,135,3.0,8.0,97,0.11,,,0.12,weatherlink.com 1.10,2013-07-04 13:36:00,
2013-07-04 09:51:00,63.7,63.0,26.64,SE,146,2.0,6.0,97,0.07,,,0.12,weatherlink.com 1.10,2013-07-04 13:51:00,
2013-07-04 10:06:00,63.4,63.0,26.64,South,173,0.0,8.0,97,0.07,,,0.12,weatherlink.com 1.10,2013-07-04 14:06:00,
2013-07-04 10:21:00,63.2,63.0,26.64,SSE,153,0.0,7.0,98,0.02,,,0.14,weatherlink.com 1.10,2013-07-04 14:21:00,
2013-07-04 10:36:00,63.2,63.0,26.64,SSE,161,1.0,6.0,98,0.04,,,0.16,weatherlink.com 1.10,2013-07-04 14:36:00,
2013-07-04 10:51:00,63.9,63.0,26.64,SE,130,4.0,4.0,98,0.04,,,0.16,weatherlink.com 1.10,2013-07-04 14:51:00,
2013-07-04 11:06:00,64.2,64.0,26.64,SE,139,4.0,7.0,98,0.04,,,0.16,weatherlink.com 1.10,2013-07-04 15:06:00,
2013-07-04 11:21:00,64.2,63.0,26.64,SSE,159,0.0,9.0,97,0.02,,,0.16,weatherlink.com 1.10,2013-07-04 15:21:00,
2013-07-04 11:36:00,64.2,63.0,26.64,East,86,1.0,11.0,97,0.00,,,0.16,weatherlink.com 1.10,2013-07-04 15:36:00,
2013-07-04 11:51:00,64.7,64.0,26.64,ESE,120,2.0,8.0,97,0.00,,,0.16,weatherlink.com 1.10,2013-07-04 15:51:00,
2013-07-04 12:06:00,64.7,64.0,26.65,SSE,161,5.0,9.0,97,0.01,,,0.17,weatherlink.com 1.10,2013-07-04 16:06:00,
2013-07-04 12:21:00,65.0,64.0,26.65,South,184,2.0,7.0,97,0.01,,,0.17,weatherlink.com 1.10,2013-07-04 16:21:00,
2013-07-04 12:36:00,64.8,64.0,26.64,South,173,6.0,13.0,97,0.01,,,0.17,weatherlink.com 1.10,2013-07-04 16:36:00,
2013-07-04 12:51:00,65.2,64.0,26.64,South,169,4.0,9.0,97,0.01,,,0.17,weatherlink.com 1.10,2013-07-04 16:51:00,
2013-07-04 13:06:00,65.2,64.0,26.64,SE,145,0.0,12.0,97,0.00,,,0.17,weatherlink.com 1.10,2013-07-04 17:06:00,
2013-07-04 13:22:00,65.5,65.0,26.63,SSE,163,6.0,13.0,97,0.00,,,0.17,weatherlink.com 1.10,2013-07-04 17:22:00,
2013-07-04 13:37:00,66.0,65.0,26.63,SSE,159,2.0,8.0,96,0.00,,,0.17,weatherlink.com 1.10,2013-07-04 17:37:00,
2013-07-04 13:52:00,66.1,65.0,26.62,South,170,5.0,13.0,95,0.00,,,0.17,weatherlink.com 1.10,2013-07-04 17:52:00,
2013-07-04 14:07:00,66.4,64.0,26.62,SE,126,2.0,12.0,93,0.00,,,0.17,weatherlink.com 1.10,2013-07-04 18:07:00,
2013-07-04 14:22:00,67.6,65.0,26.61,South,169,5.0,12.0,91,0.00,,,0.17,weatherlink.com 1.10,2013-07-04 18:22:00,
2013-07-04 14:37:00,67.3,64.0,26.62,SSE,152,3.0,7.0,90,0.00,,,0.17,weatherlink.com 1.10,2013-07-04 18:37:00,
2013-07-04 14:52:00,65.6,63.0,26.62,SE,144,0.0,15.0,92,0.34,,,0.51,weatherlink.com 1.10,2013-07-04 18:52:00,
2013-07-04 15:07:00,66.3,65.0,26.61,SE,146,4.0,7.0,95,0.46,,,0.63,weatherlink.com 1.10,2013-07-04 19:07:00,
2013-07-04 15:22:00,65.5,64.0,26.62,SSE,163,0.0,11.0,95,0.54,,,0.71,weatherlink.com 1.10,2013-07-04 19:22:00,
2013-07-04 15:37:00,65.6,64.0,26.62,SSE,160,0.0,8.0,95,0.56,,,0.73,weatherlink.com 1.10,2013-07-04 19:37:00,
2013-07-04 15:52:00,66.1,65.0,26.61,SSW,203,2.0,7.0,95,0.22,,,0.75,weatherlink.com 1.10,2013-07-04 19:52:00,
2013-07-04 16:07:00,66.4,65.0,26.61,SSE,161,0.0,8.0,95,0.12,,,0.75,weatherlink.com 1.10,2013-07-04 20:07:00,
2013-07-04 16:22:00,66.9,66.0,26.61,SSW,194,1.0,8.0,95,0.04,,,0.75,weatherlink.com 1.10,2013-07-04 20:22:00,
2013-07-04 16:37:00,67.1,65.0,26.60,SE,142,5.0,7.0,94,0.07,,,0.80,weatherlink.com 1.10,2013-07-04 20:37:00,
2013-07-04 16:52:00,66.1,64.0,26.61,South,178,2.0,9.0,94,0.08,,,0.83,weatherlink.com 1.10,2013-07-04 20:52:00,
2013-07-04 17:07:00,66.4,65.0,26.61,ESE,110,0.0,7.0,94,0.08,,,0.83,weatherlink.com 1.10,2013-07-04 21:07:00,
2013-07-04 17:22:00,66.8,65.0,26.60,SE,134,4.0,7.0,93,0.08,,,0.83,weatherlink.com 1.10,2013-07-04 21:22:00,
2013-07-04 17:37:00,66.8,65.0,26.60,SSE,147,2.0,6.0,94,0.03,,,0.83,weatherlink.com 1.10,2013-07-04 21:37:00,
2013-07-04 17:52:00,-999.0,-99.9,26.61,North,-999,-999.0,-999.0,-999,0.00,,,0.83,weatherlink.com 1.10,2013-07-04 21:52:00,
2013-07-04 18:07:00,-999.0,-99.9,26.62,North,-999,-999.0,-999.0,-999,0.00,,,0.83,weatherlink.com 1.10,2013-07-04 22:07:00,
2013-07-04 18:22:00,-999.0,-99.9,26.62,North,-999,-999.0,-999.0,-999,0.00,,,0.83,weatherlink.com 1.10,2013-07-04 22:22:00,
2013-07-04 18:37:00,-999.0,-99.9,26.61,North,-999,-999.0,-999.0,-999,0.00,,,0.83,weatherlink.com 1.10,2013-07-04 22:37:00,
2013-07-04 18:52:00,-999.0,-99.9,26.61,North,-999,-999.0,-999.0,-999,0.00,,,0.83,weatherlink.com 1.10,2013-07-04 22:52:00,
2013-07-04 19:07:00,-999.0,-99.9,26.60,North,-999,-999.0,-999.0,-999,0.00,,,0.83,weatherlink.com 1.10,2013-07-04 23:07:00,
2013-07-04 19:22:00,-999.0,-99.9,26.60,North,-999,-999.0,-999.0,-999,0.00,,,0.83,weatherlink.com 1.10,2013-07-04 23:22:00,
2013-07-04 19:37:00,-999.0,-99.9,26.61,North,-999,-999.0,-999.0,-999,0.00,,,0.83,weatherlink.com 1.10,2013-07-04 23:37:00,
2013-07-04 19:52:00,-999.0,-99.9,26.60,North,-999,-999.0,-999.0,-999,0.00,,,0.83,weatherlink.com 1.10,2013-07-04 23:52:00,
2013-07-04 20:07:00,-999.0,-99.9,26.60,North,-999,-999.0,-999.0,-999,0.00,,,0.83,weatherlink.com 1.10,2013-07-05 00:07:00,
2013-07-04 20:23:00,-999.0,-99.9,26.61,North,-999,-999.0,-999.0,-999,0.00,,,0.83,weatherlink.com 1.10,2013-07-05 00:23:00,
2013-07-04 20:32:00,-999.0,-99.9,26.63,North,-999,-999.0,-999.0,-999,0.00,,,0.83,weatherlink.com 1.10,2013-07-05 00:32:00,
2013-07-04 20:45:00,-999.0,-99.9,26.62,North,-999,-999.0,-999.0,-999,0.00,,,0.83,weatherlink.com 1.10,2013-07-05 00:45:00,
2013-07-04 21:00:00,-999.0,-99.9,26.62,North,-999,-999.0,-999.0,-999,0.00,,,0.83,weatherlink.com 1.10,2013-07-05 01:00:00,
2013-07-04 21:15:00,-999.0,-99.9,26.63,North,-999,-999.0,-999.0,-999,0.00,,,0.83,weatherlink.com 1.10,2013-07-05 01:15:00,
2013-07-04 21:30:00,-999.0,-99.9,26.62,North,-999,-999.0,-999.0,-999,0.00,,,0.83,weatherlink.com 1.10,2013-07-05 01:30:00,
2013-07-04 21:46:00,-999.0,-99.9,26.62,North,-999,-999.0,-999.0,-999,0.00,,,0.83,weatherlink.com 1.10,2013-07-05 01:46:00,
2013-07-04 22:01:00,-999.0,-99.9,26.62,North,-999,-999.0,-999.0,-999,0.00,,,0.83,weatherlink.com 1.10,2013-07-05 02:01:00,
2013-07-04 22:16:00,-999.0,-99.9,26.62,North,-999,-999.0,-999.0,-999,0.00,,,0.83,weatherlink.com 1.10,2013-07-05 02:16:00,
2013-07-04 22:31:00,-999.0,-99.9,26.62,North,-999,-999.0,-999.0,-999,0.00,,,0.83,weatherlink.com 1.10,2013-07-05 02:31:00,
2013-07-04 22:46:00,-999.0,-99.9,26.63,North,-999,-999.0,-999.0,-999,0.00,,,0.83,weatherlink.com 1.10,2013-07-05 02:46:00,
2013-07-04 23:01:00,-999.0,-99.9,26.64,North,-999,-999.0,-999.0,-999,0.00,,,0.83,weatherlink.com 1.10,2013-07-05 03:01:00,
2013-07-04 23:16:00,-999.0,-99.9,26.63,North,-999,-999.0,-999.0,-999,0.00,,,0.83,weatherlink.com 1.10,2013-07-05 03:16:00,
2013-07-04 23:31:00,-999.0,-99.9,26.63,North,-999,-999.0,-999.0,-999,0.00,,,0.83,weatherlink.com 1.10,2013-07-05 03:31:00,
2013-07-04 23:46:00,-999.0,-99.9,26.62,North,-999,-999.0,-999.0,-999,0.00,,,0.83,weatherlink.com 1.10,2013-07-05 03:46:00,